Eagle — WBP2187 — position and weather

sailwx.info

Track history (hours):
 
Tides and Currents Weather Stations Pressure Air Temp Water Temp Dewpoint Dewpoint Depression Visibility Wind Speed Wind Dir Waves Ship Positions

Eagle

Owner: Harley Marine Services, INC, SEATTLE, WA. More information available from US FCC via Universal Licensing System and Coast Guard Vessel Documentation Center.

Last reported at 2015-May-22 11:33 UTC. Time now 2015-May-22 11:38 UTC.
Position N 37°55' W 122°22'.

Length 32 m; draft 4 m.

Type: Tow > 200 m length. MMSI: 366978690.

Date/timePositionNaut miles runAvg speedWind from/ knotsBaromVisibWave heightAir tempDewpointWater temp
2015-May-22 11:33N 37°55' W 122°22'0 0.0
2015-May-22 10:33N 37°55' W 122°22'0 0.0
2015-May-22 09:33N 37°55' W 122°22'0 0.0
2015-May-22 08:33N 37°55' W 122°22'0 0.0
2015-May-22 07:33N 37°55' W 122°22'0 0.0
2015-May-22 06:33N 37°55' W 122°22'0 0.0
2015-May-22 05:33N 37°55' W 122°22'0 0.0
2015-May-22 04:33N 37°55' W 122°22'0 0.0
2015-May-22 03:33N 37°55' W 122°22'0 0.0
2015-May-22 02:33N 37°55' W 122°22'0 0.0
2015-May-22 01:31N 37°55' W 122°22'0 0.0
2015-May-22 00:33N 37°55' W 122°22'0 0.0
2015-May-21 23:33N 37°55' W 122°22'0 0.0
2015-May-21 22:33N 37°55' W 122°22'0 0.1
2015-May-21 21:33N 37°55' W 122°22'0 0.0
2015-May-21 20:33N 37°55' W 122°22'0 0.0
2015-May-21 19:31N 37°55' W 122°22'0 0.1
2015-May-21 18:33N 37°55' W 122°22'2 1.8
2015-May-21 17:33N 37°55' W 122°24'6 6.1
2015-May-21 16:33N 38°01' W 122°24'7 0.5
2015-May-21 02:16N 38°04' W 122°16'6 5.5
2015-May-21 01:13N 38°02' W 122°09'6 0.3
2015-May-20 06:29N 38°03' W 122°16'0 0.0
2015-May-20 05:31N 38°03' W 122°16'0 0.0
2015-May-20 04:28N 38°03' W 122°16'0 0.0
2015-May-19 23:06N 38°03' W 122°16'6 0.7
2015-May-19 15:10N 38°02' W 122°09'2 0.1
2015-May-18 21:07N 38°03' W 122°11'4 0.3
2015-May-18 08:15N 38°03' W 122°16'0 0.0
2015-May-17 09:16N 38°03' W 122°16'0 0.0
2015-May-17 08:33N 38°03' W 122°16'0 0.0
2015-May-17 06:13N 38°03' W 122°16'1 0.1
2015-May-16 20:19N 38°03' W 122°17'4 5.8
2015-May-16 19:33N 38°02' W 122°22'6 5.8
2015-May-16 18:32N 37°57' W 122°27'5 4.7
2015-May-16 17:33N 37°54' W 122°22'1 0.5
2015-May-16 16:29N 37°55' W 122°22'0 0.0
2015-May-16 15:32N 37°55' W 122°22'0 0.0
2015-May-16 14:33N 37°55' W 122°22'0 0.0
2015-May-16 13:33N 37°55' W 122°22'0 0.0
2015-May-16 12:29N 37°55' W 122°22'0 0.0
2015-May-16 11:33N 37°55' W 122°22'0 0.0
2015-May-16 10:33N 37°55' W 122°22'0 0.0
2015-May-16 09:33N 37°55' W 122°22'0 0.0
2015-May-16 08:33N 37°55' W 122°22'0 0.0
2015-May-16 07:33N 37°55' W 122°22'0 0.0
2015-May-16 06:33N 37°55' W 122°22'0 0.0
2015-May-16 05:31N 37°55' W 122°22'0 0.0
2015-May-16 04:33N 37°55' W 122°22'0 0.0
2015-May-16 03:33N 37°55' W 122°22'0 0.0
2015-May-16 02:32N 37°55' W 122°22'0 0.0
2015-May-16 01:33N 37°55' W 122°22'0 0.0
2015-May-16 00:33N 37°55' W 122°22'0 0.0
2015-May-15 23:33N 37°55' W 122°22'0 0.0
2015-May-15 22:33N 37°55' W 122°22'0 0.0
2015-May-15 21:33N 37°55' W 122°22'0 0.0
2015-May-15 20:33N 37°55' W 122°22'0 0.0
2015-May-15 19:33N 37°55' W 122°22'0 0.0
2015-May-15 18:33N 37°55' W 122°22'0 0.1
2015-May-15 17:31N 37°55' W 122°22'0 0.0
2015-May-15 16:33N 37°55' W 122°22'0 0.0
2015-May-15 15:32N 37°55' W 122°22'0 0.0
2015-May-15 14:33N 37°55' W 122°22'0 0.0
2015-May-15 13:33N 37°55' W 122°22'0 0.0
2015-May-15 12:33N 37°55' W 122°22'0 0.0
2015-May-15 11:33N 37°55' W 122°22'0 0.0
2015-May-15 10:33N 37°55' W 122°22'0 0.0
2015-May-15 09:33N 37°55' W 122°22'0 0.0
2015-May-15 08:33N 37°55' W 122°22'0 0.0
2015-May-15 07:33N 37°55' W 122°22'0 0.0
2015-May-15 06:33N 37°55' W 122°22'0 0.0
2015-May-15 05:33N 37°55' W 122°22'0 0.0
2015-May-15 04:33N 37°55' W 122°22'0 0.0
2015-May-15 03:33N 37°55' W 122°22'0 0.0
2015-May-15 02:33N 37°55' W 122°22'0 0.0
2015-May-15 01:33N 37°55' W 122°22'2 2.0
2015-May-15 00:33N 37°55' W 122°24'3 3.5
2015-May-14 23:33N 37°58' W 122°26'7 6.9
2015-May-14 22:27N 38°03' W 122°20'7 7.2
2015-May-14 21:29N 38°03' W 122°11'2 2.0
2015-May-14 20:32N 38°02' W 122°09'1 0.5
2015-May-14 19:21N 38°02' W 122°09'7 5.9
2015-May-14 18:09N 38°03' W 122°18'4 7.2
2015-May-14 17:33N 38°01' W 122°23'8 6.9
2015-May-14 16:24N 37°54' W 122°26'5 5.4
2015-May-14 15:33N 37°49' W 122°26'9 7.9
2015-May-14 14:24N 37°46' W 122°37'8 6.3
2015-May-14 13:08N 37°47' W 122°47'4 6.2
2015-May-14 12:28N 37°49' W 122°52'6 7.0
2015-May-14 11:33N 37°52' W 122°59'7 6.9
2015-May-14 10:33N 37°55' W 123°06'6 6.1
2015-May-14 09:33N 37°59' W 123°12'6 6.1
2015-May-14 08:33N 38°04' W 123°17'7 6.7
2015-May-14 07:33N 38°09' W 123°23'7 6.8
2015-May-14 06:33N 38°14' W 123°28'7 7.0
2015-May-14 05:33N 38°19' W 123°34'8 7.6
2015-May-14 04:33N 38°25' W 123°40'  
Track history (hours):
 
Tides and Currents Weather Stations Pressure Air Temp Water Temp Dewpoint Dewpoint Depression Visibility Wind Speed Wind Dir Waves Ship Positions

Eagle

Owner: Harley Marine Services, INC, SEATTLE, WA. More information available from US FCC via Universal Licensing System and Coast Guard Vessel Documentation Center.

Last reported at 2015-May-22 11:33 UTC. Time now 2015-May-22 11:38 UTC.
Position N 37°55' W 122°22'.

Length 32 m; draft 4 m.

Type: Tow > 200 m length. MMSI: 366978690.

Date/timePositionNaut miles runAvg speedWind from/ knotsBaromVisibWave heightAir tempDewpointWater temp
2015-May-22 11:33N 37°55' W 122°22'0 0.0
2015-May-22 10:33N 37°55' W 122°22'0 0.0
2015-May-22 09:33N 37°55' W 122°22'0 0.0
2015-May-22 08:33N 37°55' W 122°22'0 0.0
2015-May-22 07:33N 37°55' W 122°22'0 0.0
2015-May-22 06:33N 37°55' W 122°22'0 0.0
2015-May-22 05:33N 37°55' W 122°22'0 0.0
2015-May-22 04:33N 37°55' W 122°22'0 0.0
2015-May-22 03:33N 37°55' W 122°22'0 0.0
2015-May-22 02:33N 37°55' W 122°22'0 0.0
2015-May-22 01:31N 37°55' W 122°22'0 0.0
2015-May-22 00:33N 37°55' W 122°22'0 0.0
2015-May-21 23:33N 37°55' W 122°22'0 0.0
2015-May-21 22:33N 37°55' W 122°22'0 0.1
2015-May-21 21:33N 37°55' W 122°22'0 0.0
2015-May-21 20:33N 37°55' W 122°22'0 0.0
2015-May-21 19:31N 37°55' W 122°22'0 0.1
2015-May-21 18:33N 37°55' W 122°22'2 1.8
2015-May-21 17:33N 37°55' W 122°24'6 6.1
2015-May-21 16:33N 38°01' W 122°24'7 0.5
2015-May-21 02:16N 38°04' W 122°16'6 5.5
2015-May-21 01:13N 38°02' W 122°09'6 0.3
2015-May-20 06:29N 38°03' W 122°16'0 0.0
2015-May-20 05:31N 38°03' W 122°16'0 0.0
2015-May-20 04:28N 38°03' W 122°16'0 0.0
2015-May-19 23:06N 38°03' W 122°16'6 0.7
2015-May-19 15:10N 38°02' W 122°09'2 0.1
2015-May-18 21:07N 38°03' W 122°11'4 0.3
2015-May-18 08:15N 38°03' W 122°16'0 0.0
2015-May-17 09:16N 38°03' W 122°16'0 0.0
2015-May-17 08:33N 38°03' W 122°16'0 0.0
2015-May-17 06:13N 38°03' W 122°16'1 0.1
2015-May-16 20:19N 38°03' W 122°17'4 5.8
2015-May-16 19:33N 38°02' W 122°22'6 5.8
2015-May-16 18:32N 37°57' W 122°27'5 4.7
2015-May-16 17:33N 37°54' W 122°22'1 0.5
2015-May-16 16:29N 37°55' W 122°22'0 0.0
2015-May-16 15:32N 37°55' W 122°22'0 0.0
2015-May-16 14:33N 37°55' W 122°22'0 0.0
2015-May-16 13:33N 37°55' W 122°22'0 0.0
2015-May-16 12:29N 37°55' W 122°22'0 0.0
2015-May-16 11:33N 37°55' W 122°22'0 0.0
2015-May-16 10:33N 37°55' W 122°22'0 0.0
2015-May-16 09:33N 37°55' W 122°22'0 0.0
2015-May-16 08:33N 37°55' W 122°22'0 0.0
2015-May-16 07:33N 37°55' W 122°22'0 0.0
2015-May-16 06:33N 37°55' W 122°22'0 0.0
2015-May-16 05:31N 37°55' W 122°22'0 0.0
2015-May-16 04:33N 37°55' W 122°22'0 0.0
2015-May-16 03:33N 37°55' W 122°22'0 0.0
2015-May-16 02:32N 37°55' W 122°22'0 0.0
2015-May-16 01:33N 37°55' W 122°22'0 0.0
2015-May-16 00:33N 37°55' W 122°22'0 0.0
2015-May-15 23:33N 37°55' W 122°22'0 0.0
2015-May-15 22:33N 37°55' W 122°22'0 0.0
2015-May-15 21:33N 37°55' W 122°22'0 0.0
2015-May-15 20:33N 37°55' W 122°22'0 0.0
2015-May-15 19:33N 37°55' W 122°22'0 0.0
2015-May-15 18:33N 37°55' W 122°22'0 0.1
2015-May-15 17:31N 37°55' W 122°22'0 0.0
2015-May-15 16:33N 37°55' W 122°22'0 0.0
2015-May-15 15:32N 37°55' W 122°22'0 0.0
2015-May-15 14:33N 37°55' W 122°22'0 0.0
2015-May-15 13:33N 37°55' W 122°22'0 0.0
2015-May-15 12:33N 37°55' W 122°22'0 0.0
2015-May-15 11:33N 37°55' W 122°22'0 0.0
2015-May-15 10:33N 37°55' W 122°22'0 0.0
2015-May-15 09:33N 37°55' W 122°22'0 0.0
2015-May-15 08:33N 37°55' W 122°22'0 0.0
2015-May-15 07:33N 37°55' W 122°22'0 0.0
2015-May-15 06:33N 37°55' W 122°22'0 0.0
2015-May-15 05:33N 37°55' W 122°22'0 0.0
2015-May-15 04:33N 37°55' W 122°22'0 0.0
2015-May-15 03:33N 37°55' W 122°22'0 0.0
2015-May-15 02:33N 37°55' W 122°22'0 0.0
2015-May-15 01:33N 37°55' W 122°22'2 2.0
2015-May-15 00:33N 37°55' W 122°24'3 3.5
2015-May-14 23:33N 37°58' W 122°26'7 6.9
2015-May-14 22:27N 38°03' W 122°20'7 7.2
2015-May-14 21:29N 38°03' W 122°11'2 2.0
2015-May-14 20:32N 38°02' W 122°09'1 0.5
2015-May-14 19:21N 38°02' W 122°09'7 5.9
2015-May-14 18:09N 38°03' W 122°18'4 7.2
2015-May-14 17:33N 38°01' W 122°23'8 6.9
2015-May-14 16:24N 37°54' W 122°26'5 5.4
2015-May-14 15:33N 37°49' W 122°26'9 7.9
2015-May-14 14:24N 37°46' W 122°37'8 6.3
2015-May-14 13:08N 37°47' W 122°47'4 6.2
2015-May-14 12:28N 37°49' W 122°52'6 7.0
2015-May-14 11:33N 37°52' W 122°59'7 6.9
2015-May-14 10:33N 37°55' W 123°06'6 6.1
2015-May-14 09:33N 37°59' W 123°12'6 6.1
2015-May-14 08:33N 38°04' W 123°17'7 6.7
2015-May-14 07:33N 38°09' W 123°23'7 6.8
2015-May-14 06:33N 38°14' W 123°28'7 7.0
2015-May-14 05:33N 38°19' W 123°34'8 7.6
2015-May-14 04:33N 38°25' W 123°40'  

Dump ship's entire track history